PWSweather.com
Personal Weather Stations
Station Observations
DW6359
Southwest Cambria, Cambria, WI 53923

Southwest CambriaCambria, WI 53923

Lat: 43.541194, Lon: -89.11275

Elevation: 945

Station Type: Davis Vantage Pro2

http://home.centurytel.net/weathercambria/wxcambria.html

High Low Average
Temperature 40.4°F4.7°C 21.2°F-6.0°C 32.1°F0.1°C
Dew Point 29.0°F-1.7°C 18.2°F-7.7°C 23.7°F-4.6°C
Winds 7.0 mph 11.3 kmh Calm Calm 1.0 mph SSW1.6 kmh SSW
Wind Gusts 8.0 mph12.9 kmh -- --
Humidity 89% 48% 72%
Pressure 30.35 in1027.8 mb 30.22 in1023.4 mb -
Precipitation 0.00 in0.0 mm - -
Hour Temp Dew Point Humidity Winds Wind Gusts Pressure Precip Precip Rate Daily Precip Total
12:00 AM 26.7°F-2.9°C 21.7°F-5.7°C 81% Calm Calm -- 30.27 in1025.1 mb 0.00 in0.0 mm 0.00 in0.0 mm 0.00 in0.0 mm
12:05 AM 26.5°F-3.1°C 21.5°F-5.8°C 81% Calm Calm -- 30.27 in1025.1 mb 0.00 in0.0 mm 0.00 in0.0 mm 0.00 in0.0 mm
12:10 AM 26.4°F-3.1°C 21.7°F-5.7°C 82% Calm Calm -- 30.27 in1025.1 mb 0.00 in0.0 mm 0.00 in0.0 mm 0.00 in0.0 mm
12:15 AM 26.4°F-3.1°C 21.7°F-5.7°C 82% Calm Calm -- 30.27 in1025.1 mb 0.00 in0.0 mm 0.00 in0.0 mm 0.00 in0.0 mm
12:20 AM 26.4°F-3.1°C 21.7°F-5.7°C 82% Calm Calm -- 30.27 in1025.1 mb 0.00 in0.0 mm 0.00 in0.0 mm 0.00 in0.0 mm
12:25 AM 26.6°F-3.0°C 22.1°F-5.5°C 83% Calm Calm -- 30.27 in1025.1 mb 0.00 in0.0 mm 0.00 in0.0 mm 0.00 in0.0 mm
12:30 AM 26.6°F-3.0°C 21.9°F-5.6°C 82% Calm Calm -- 30.27 in1025.1 mb 0.00 in0.0 mm 0.00 in0.0 mm 0.00 in0.0 mm
12:35 AM 26.5°F-3.1°C 21.8°F-5.7°C 82% Calm Calm -- 30.27 in1025.1 mb 0.00 in0.0 mm 0.00 in0.0 mm 0.00 in0.0 mm
12:40 AM 26.5°F-3.1°C 21.8°F-5.7°C 82% Calm Calm -- 30.27 in1025.1 mb 0.00 in0.0 mm 0.00 in0.0 mm 0.00 in0.0 mm
12:45 AM 26.3°F-3.2°C 21.6°F-5.8°C 82% Calm Calm -- 30.27 in1025.1 mb 0.00 in0.0 mm 0.00 in0.0 mm 0.00 in0.0 mm
12:50 AM 26.1°F-3.3°C 21.4°F-5.9°C 82% Calm Calm -- 30.27 in1025.1 mb 0.00 in0.0 mm 0.00 in0.0 mm 0.00 in0.0 mm
12:55 AM 26.0°F-3.3°C 21.6°F-5.8°C 83% Calm Calm -- 30.27 in1025.1 mb 0.00 in0.0 mm 0.00 in0.0 mm 0.00 in0.0 mm
01:00 AM 26.1°F-3.3°C 21.7°F-5.7°C 83% Calm Calm -- 30.27 in1025.1 mb 0.00 in0.0 mm 0.00 in0.0 mm 0.00 in0.0 mm
01:05 AM 26.1°F-3.3°C 21.9°F-5.6°C 84% Calm Calm -- 30.27 in1025.1 mb 0.00 in0.0 mm 0.00 in0.0 mm 0.00 in0.0 mm
01:10 AM 26.1°F-3.3°C 21.7°F-5.7°C 83% Calm Calm -- 30.27 in1025.1 mb 0.00 in0.0 mm 0.00 in0.0 mm 0.00 in0.0 mm
01:15 AM 26.0°F-3.3°C 21.6°F-5.8°C 83% Calm Calm -- 30.27 in1025.1 mb 0.00 in0.0 mm 0.00 in0.0 mm 0.00 in0.0 mm
01:20 AM 25.9°F-3.4°C 21.5°F-5.8°C 83% Calm Calm -- 30.27 in1025.1 mb 0.00 in0.0 mm 0.00 in0.0 mm 0.00 in0.0 mm
01:25 AM 25.7°F-3.5°C 21.3°F-5.9°C 83% Calm Calm -- 30.27 in1025.1 mb 0.00 in0.0 mm 0.00 in0.0 mm 0.00 in0.0 mm
01:30 AM 25.4°F-3.7°C 21.0°F-6.1°C 83% Calm Calm -- 30.27 in1025.1 mb 0.00 in0.0 mm 0.00 in0.0 mm 0.00 in0.0 mm
01:35 AM 25.3°F-3.7°C 21.2°F-6.0°C 84% Calm Calm -- 30.27 in1025.1 mb 0.00 in0.0 mm 0.00 in0.0 mm 0.00 in0.0 mm
01:40 AM 25.3°F-3.7°C 21.2°F-6.0°C 84% Calm Calm -- 30.26 in1024.7 mb 0.00 in0.0 mm 0.00 in0.0 mm 0.00 in0.0 mm
01:45 AM 25.4°F-3.7°C 21.3°F-5.9°C 84% Calm Calm -- 30.26 in1024.7 mb 0.00 in0.0 mm 0.00 in0.0 mm 0.00 in0.0 mm
01:50 AM 25.5°F-3.6°C 21.6°F-5.8°C 85% Calm Calm -- 30.27 in1025.1 mb 0.00 in0.0 mm 0.00 in0.0 mm 0.00 in0.0 mm
01:55 AM 25.5°F-3.6°C 21.4°F-5.9°C 84% Calm Calm -- 30.27 in1025.1 mb 0.00 in0.0 mm 0.00 in0.0 mm 0.00 in0.0 mm
02:00 AM 25.5°F-3.6°C 21.4°F-5.9°C 84% Calm Calm -- 30.27 in1025.1 mb 0.00 in0.0 mm 0.00 in0.0 mm 0.00 in0.0 mm
02:05 AM 25.4°F-3.7°C 21.3°F-5.9°C 84% Calm Calm -- 30.27 in1025.1 mb 0.00 in0.0 mm 0.00 in0.0 mm 0.00 in0.0 mm
02:10 AM 25.3°F-3.7°C 21.2°F-6.0°C 84% Calm Calm -- 30.27 in1025.1 mb 0.00 in0.0 mm 0.00 in0.0 mm 0.00 in0.0 mm
02:15 AM 25.2°F-3.8°C 21.1°F-6.1°C 84% Calm Calm -- 30.27 in1025.1 mb 0.00 in0.0 mm 0.00 in0.0 mm 0.00 in0.0 mm
02:20 AM 25.1°F-3.8°C 21.0°F-6.1°C 84% Calm Calm -- 30.27 in1025.1 mb 0.00 in0.0 mm 0.00 in0.0 mm 0.00 in0.0 mm
02:25 AM 25.1°F-3.8°C 21.0°F-6.1°C 84% Calm Calm -- 30.27 in1025.1 mb 0.00 in0.0 mm 0.00 in0.0 mm 0.00 in0.0 mm
02:30 AM 25.0°F-3.9°C 21.1°F-6.1°C 85% Calm Calm -- 30.27 in1025.1 mb 0.00 in0.0 mm 0.00 in0.0 mm 0.00 in0.0 mm
02:35 AM 24.9°F-3.9°C 21.0°F-6.1°C 85% Calm Calm -- 30.27 in1025.1 mb 0.00 in0.0 mm 0.00 in0.0 mm 0.00 in0.0 mm
02:40 AM 24.7°F-4.1°C 20.6°F-6.3°C 84% Calm Calm -- 30.27 in1025.1 mb 0.00 in0.0 mm 0.00 in0.0 mm 0.00 in0.0 mm
02:45 AM 24.5°F-4.2°C 20.4°F-6.4°C 84% Calm Calm -- 30.27 in1025.1 mb 0.00 in0.0 mm 0.00 in0.0 mm 0.00 in0.0 mm
02:50 AM 24.3°F-4.3°C 20.5°F-6.4°C 85% Calm Calm -- 30.27 in1025.1 mb 0.00 in0.0 mm 0.00 in0.0 mm 0.00 in0.0 mm
02:55 AM 24.1°F-4.4°C 20.3°F-6.5°C 85% Calm Calm -- 30.27 in1025.1 mb 0.00 in0.0 mm 0.00 in0.0 mm 0.00 in0.0 mm
03:00 AM 24.0°F-4.4°C 20.2°F-6.6°C 85% Calm Calm -- 30.27 in1025.1 mb 0.00 in0.0 mm 0.00 in0.0 mm 0.00 in0.0 mm
03:05 AM 23.9°F-4.5°C 20.1°F-6.6°C 85% Calm Calm -- 30.27 in1025.1 mb 0.00 in0.0 mm 0.00 in0.0 mm 0.00 in0.0 mm
03:10 AM 23.8°F-4.6°C 20.2°F-6.6°C 86% Calm Calm -- 30.27 in1025.1 mb 0.00 in0.0 mm 0.00 in0.0 mm 0.00 in0.0 mm
03:15 AM 23.6°F-4.7°C 20.0°F-6.7°C 86% Calm Calm -- 30.27 in1025.1 mb 0.00 in0.0 mm 0.00 in0.0 mm 0.00 in0.0 mm
03:20 AM 23.6°F-4.7°C 20.0°F-6.7°C 86% Calm Calm -- 30.27 in1025.1 mb 0.00 in0.0 mm 0.00 in0.0 mm 0.00 in0.0 mm
03:25 AM 23.5°F-4.7°C 19.9°F-6.7°C 86% Calm Calm -- 30.27 in1025.1 mb 0.00 in0.0 mm 0.00 in0.0 mm 0.00 in0.0 mm
03:30 AM 23.4°F-4.8°C 19.8°F-6.8°C 86% Calm Calm -- 30.27 in1025.1 mb 0.00 in0.0 mm 0.00 in0.0 mm 0.00 in0.0 mm
03:35 AM 23.1°F-4.9°C 19.5°F-6.9°C 86% Calm Calm -- 30.27 in1025.1 mb 0.00 in0.0 mm 0.00 in0.0 mm 0.00 in0.0 mm
03:40 AM 22.9°F-5.1°C 19.4°F-7.0°C 86% Calm Calm -- 30.27 in1025.1 mb 0.00 in0.0 mm 0.00 in0.0 mm 0.00 in0.0 mm
03:45 AM 22.7°F-5.2°C 19.2°F-7.1°C 86% Calm Calm -- 30.27 in1025.1 mb 0.00 in0.0 mm 0.00 in0.0 mm 0.00 in0.0 mm
03:50 AM 22.4°F-5.3°C 18.9°F-7.3°C 86% Calm Calm -- 30.27 in1025.1 mb 0.00 in0.0 mm 0.00 in0.0 mm 0.00 in0.0 mm
03:55 AM 22.3°F-5.4°C 18.8°F-7.3°C 86% Calm Calm -- 30.27 in1025.1 mb 0.00 in0.0 mm 0.00 in0.0 mm 0.00 in0.0 mm
04:00 AM 22.3°F-5.4°C 19.0°F-7.2°C 87% Calm Calm -- 30.27 in1025.1 mb 0.00 in0.0 mm 0.00 in0.0 mm 0.00 in0.0 mm
04:05 AM 22.3°F-5.4°C 19.0°F-7.2°C 87% Calm Calm -- 30.27 in1025.1 mb 0.00 in0.0 mm 0.00 in0.0 mm 0.00 in0.0 mm
04:10 AM 22.4°F-5.3°C 19.1°F-7.2°C 87% Calm Calm -- 30.27 in1025.1 mb 0.00 in0.0 mm 0.00 in0.0 mm 0.00 in0.0 mm
04:15 AM 22.3°F-5.4°C 19.0°F-7.2°C 87% Calm Calm -- 30.27 in1025.1 mb 0.00 in0.0 mm 0.00 in0.0 mm 0.00 in0.0 mm
04:20 AM 22.2°F-5.4°C 18.9°F-7.3°C 87% Calm Calm -- 30.28 in1025.4 mb 0.00 in0.0 mm 0.00 in0.0 mm 0.00 in0.0 mm
04:25 AM 22.1°F-5.5°C 18.8°F-7.3°C 87% Calm Calm -- 30.28 in1025.4 mb 0.00 in0.0 mm 0.00 in0.0 mm 0.00 in0.0 mm
04:30 AM 22.0°F-5.6°C 18.7°F-7.4°C 87% Calm Calm -- 30.28 in1025.4 mb 0.00 in0.0 mm 0.00 in0.0 mm 0.00 in0.0 mm
04:35 AM 21.8°F-5.7°C 18.5°F-7.5°C 87% Calm Calm -- 30.28 in1025.4 mb 0.00 in0.0 mm 0.00 in0.0 mm 0.00 in0.0 mm
04:40 AM 21.7°F-5.7°C 18.4°F-7.6°C 87% Calm Calm -- 30.28 in1025.4 mb 0.00 in0.0 mm 0.00 in0.0 mm 0.00 in0.0 mm
04:45 AM 21.6°F-5.8°C 18.3°F-7.6°C 87% Calm Calm -- 30.28 in1025.4 mb 0.00 in0.0 mm 0.00 in0.0 mm 0.00 in0.0 mm
04:50 AM 21.6°F-5.8°C 18.3°F-7.6°C 87% Calm Calm -- 30.29 in1025.7 mb 0.00 in0.0 mm 0.00 in0.0 mm 0.00 in0.0 mm
04:55 AM 21.5°F-5.8°C 18.2°F-7.7°C 87% Calm Calm -- 30.29 in1025.7 mb 0.00 in0.0 mm 0.00 in0.0 mm 0.00 in0.0 mm
05:00 AM 21.5°F-5.8°C 18.5°F-7.5°C 88% Calm Calm -- 30.29 in1025.7 mb 0.00 in0.0 mm 0.00 in0.0 mm 0.00 in0.0 mm
05:05 AM 21.6°F-5.8°C 18.6°F-7.4°C 88% Calm Calm -- 30.29 in1025.7 mb 0.00 in0.0 mm 0.00 in0.0 mm 0.00 in0.0 mm
05:10 AM 21.6°F-5.8°C 18.6°F-7.4°C 88% Calm Calm -- 30.29 in1025.7 mb 0.00 in0.0 mm 0.00 in0.0 mm 0.00 in0.0 mm
05:15 AM 21.5°F-5.8°C 18.5°F-7.5°C 88% Calm Calm -- 30.29 in1025.7 mb 0.00 in0.0 mm 0.00 in0.0 mm 0.00 in0.0 mm
05:20 AM 21.4°F-5.9°C 18.4°F-7.6°C 88% Calm Calm -- 30.30 in1026.1 mb 0.00 in0.0 mm 0.00 in0.0 mm 0.00 in0.0 mm
05:25 AM 21.4°F-5.9°C 18.4°F-7.6°C 88% Calm Calm -- 30.30 in1026.1 mb 0.00 in0.0 mm 0.00 in0.0 mm 0.00 in0.0 mm
05:30 AM 21.4°F-5.9°C 18.4°F-7.6°C 88% Calm Calm -- 30.30 in1026.1 mb 0.00 in0.0 mm 0.00 in0.0 mm 0.00 in0.0 mm
05:35 AM 21.4°F-5.9°C 18.4°F-7.6°C 88% Calm Calm -- 30.30 in1026.1 mb 0.00 in0.0 mm 0.00 in0.0 mm 0.00 in0.0 mm
05:40 AM 21.3°F-5.9°C 18.3°F-7.6°C 88% Calm Calm -- 30.30 in1026.1 mb 0.00 in0.0 mm 0.00 in0.0 mm 0.00 in0.0 mm
05:45 AM 21.3°F-5.9°C 18.3°F-7.6°C 88% Calm Calm -- 30.30 in1026.1 mb 0.00 in0.0 mm 0.00 in0.0 mm 0.00 in0.0 mm
05:50 AM 21.3°F-5.9°C 18.3°F-7.6°C 88% Calm Calm -- 30.30 in1026.1 mb 0.00 in0.0 mm 0.00 in0.0 mm 0.00 in0.0 mm
05:55 AM 21.2°F-6.0°C 18.2°F-7.7°C 88% Calm Calm -- 30.30 in1026.1 mb 0.00 in0.0 mm 0.00 in0.0 mm 0.00 in0.0 mm
06:00 AM 21.2°F-6.0°C 18.2°F-7.7°C 88% Calm Calm -- 30.30 in1026.1 mb 0.00 in0.0 mm 0.00 in0.0 mm 0.00 in0.0 mm
06:05 AM 21.2°F-6.0°C 18.2°F-7.7°C 88% Calm Calm -- 30.30 in1026.1 mb 0.00 in0.0 mm 0.00 in0.0 mm 0.00 in0.0 mm
06:10 AM 21.2°F-6.0°C 18.2°F-7.7°C 88% Calm Calm -- 30.30 in1026.1 mb 0.00 in0.0 mm 0.00 in0.0 mm 0.00 in0.0 mm
06:15 AM 21.2°F-6.0°C 18.2°F-7.7°C 88% Calm Calm -- 30.31 in1026.4 mb 0.00 in0.0 mm 0.00 in0.0 mm 0.00 in0.0 mm
06:20 AM 21.3°F-5.9°C 18.3°F-7.6°C 88% Calm Calm -- 30.31 in1026.4 mb 0.00 in0.0 mm 0.00 in0.0 mm 0.00 in0.0 mm
06:25 AM 21.3°F-5.9°C 18.3°F-7.6°C 88% Calm Calm -- 30.31 in1026.4 mb 0.00 in0.0 mm 0.00 in0.0 mm 0.00 in0.0 mm
06:30 AM 21.3°F-5.9°C 18.3°F-7.6°C 88% Calm Calm -- 30.31 in1026.4 mb 0.00 in0.0 mm 0.00 in0.0 mm 0.00 in0.0 mm
06:35 AM 21.3°F-5.9°C 18.3°F-7.6°C 88% Calm Calm -- 30.32 in1026.8 mb 0.00 in0.0 mm 0.00 in0.0 mm 0.00 in0.0 mm
06:40 AM 21.4°F-5.9°C 18.4°F-7.6°C 88% Calm Calm -- 30.32 in1026.8 mb 0.00 in0.0 mm 0.00 in0.0 mm 0.00 in0.0 mm
06:45 AM 21.5°F-5.8°C 18.5°F-7.5°C 88% Calm Calm -- 30.32 in1026.8 mb 0.00 in0.0 mm 0.00 in0.0 mm 0.00 in0.0 mm
06:50 AM 21.6°F-5.8°C 18.6°F-7.4°C 88% Calm Calm -- 30.32 in1026.8 mb 0.00 in0.0 mm 0.00 in0.0 mm 0.00 in0.0 mm
06:55 AM 21.7°F-5.7°C 18.7°F-7.4°C 88% Calm Calm -- 30.32 in1026.8 mb 0.00 in0.0 mm 0.00 in0.0 mm 0.00 in0.0 mm
07:00 AM 21.7°F-5.7°C 18.7°F-7.4°C 88% Calm Calm -- 30.32 in1026.8 mb 0.00 in0.0 mm 0.00 in0.0 mm 0.00 in0.0 mm
07:05 AM 21.7°F-5.7°C 18.7°F-7.4°C 88% Calm Calm -- 30.32 in1026.8 mb 0.00 in0.0 mm 0.00 in0.0 mm 0.00 in0.0 mm
07:10 AM 21.8°F-5.7°C 18.8°F-7.3°C 88% Calm Calm -- 30.32 in1026.8 mb 0.00 in0.0 mm 0.00 in0.0 mm 0.00 in0.0 mm
07:15 AM 21.8°F-5.7°C 18.8°F-7.3°C 88% Calm Calm -- 30.32 in1026.8 mb 0.00 in0.0 mm 0.00 in0.0 mm 0.00 in0.0 mm
07:20 AM 21.8°F-5.7°C 18.8°F-7.3°C 88% Calm Calm -- 30.32 in1026.8 mb 0.00 in0.0 mm 0.00 in0.0 mm 0.00 in0.0 mm
07:25 AM 21.8°F-5.7°C 18.8°F-7.3°C 88% Calm Calm -- 30.32 in1026.8 mb 0.00 in0.0 mm 0.00 in0.0 mm 0.00 in0.0 mm
07:30 AM 21.8°F-5.7°C 18.8°F-7.3°C 88% Calm Calm -- 30.32 in1026.8 mb 0.00 in0.0 mm 0.00 in0.0 mm 0.00 in0.0 mm
07:35 AM 22.0°F-5.6°C 19.0°F-7.2°C 88% Calm Calm -- 30.32 in1026.8 mb 0.00 in0.0 mm 0.00 in0.0 mm 0.00 in0.0 mm
07:40 AM 22.1°F-5.5°C 19.4°F-7.0°C 89% Calm Calm -- 30.33 in1027.1 mb 0.00 in0.0 mm 0.00 in0.0 mm 0.00 in0.0 mm
07:45 AM 22.1°F-5.5°C 19.1°F-7.2°C 88% Calm Calm -- 30.33 in1027.1 mb 0.00 in0.0 mm 0.00 in0.0 mm 0.00 in0.0 mm
07:50 AM 22.1°F-5.5°C 19.1°F-7.2°C 88% Calm Calm -- 30.33 in1027.1 mb 0.00 in0.0 mm 0.00 in0.0 mm 0.00 in0.0 mm
07:55 AM 22.2°F-5.4°C 19.2°F-7.1°C 88% Calm Calm -- 30.33 in1027.1 mb 0.00 in0.0 mm 0.00 in0.0 mm 0.00 in0.0 mm
08:00 AM 22.5°F-5.3°C 19.5°F-6.9°C 88% Calm Calm -- 30.33 in1027.1 mb 0.00 in0.0 mm 0.00 in0.0 mm 0.00 in0.0 mm
08:05 AM 22.7°F-5.2°C 20.0°F-6.7°C 89% Calm Calm -- 30.33 in1027.1 mb 0.00 in0.0 mm 0.00 in0.0 mm 0.00 in0.0 mm
08:10 AM 23.0°F-5.0°C 20.0°F-6.7°C 88% Calm Calm -- 30.33 in1027.1 mb 0.00 in0.0 mm 0.00 in0.0 mm 0.00 in0.0 mm
08:15 AM 23.3°F-4.8°C 20.5°F-6.4°C 89% Calm Calm -- 30.33 in1027.1 mb 0.00 in0.0 mm 0.00 in0.0 mm 0.00 in0.0 mm
08:20 AM 23.6°F-4.7°C 20.6°F-6.3°C 88% Calm Calm -- 30.33 in1027.1 mb 0.00 in0.0 mm 0.00 in0.0 mm 0.00 in0.0 mm
08:25 AM 23.8°F-4.6°C 21.0°F-6.1°C 89% Calm Calm -- 30.33 in1027.1 mb 0.00 in0.0 mm 0.00 in0.0 mm 0.00 in0.0 mm
08:30 AM 24.0°F-4.4°C 21.2°F-6.0°C 89% Calm Calm -- 30.33 in1027.1 mb 0.00 in0.0 mm 0.00 in0.0 mm 0.00 in0.0 mm
08:35 AM 24.4°F-4.2°C 21.4°F-5.9°C 88% Calm Calm -- 30.33 in1027.1 mb 0.00 in0.0 mm 0.00 in0.0 mm 0.00 in0.0 mm
08:40 AM 24.8°F-4.0°C 22.0°F-5.6°C 89% Calm Calm -- 30.34 in1027.4 mb 0.00 in0.0 mm 0.00 in0.0 mm 0.00 in0.0 mm
08:45 AM 25.2°F-3.8°C 22.4°F-5.3°C 89% Calm Calm -- 30.34 in1027.4 mb 0.00 in0.0 mm 0.00 in0.0 mm 0.00 in0.0 mm
08:50 AM 25.6°F-3.6°C 22.8°F-5.1°C 89% Calm Calm -- 30.34 in1027.4 mb 0.00 in0.0 mm 0.00 in0.0 mm 0.00 in0.0 mm
08:55 AM 26.1°F-3.3°C 23.0°F-5.0°C 88% Calm Calm -- 30.34 in1027.4 mb 0.00 in0.0 mm 0.00 in0.0 mm 0.00 in0.0 mm
09:00 AM 26.7°F-2.9°C 23.6°F-4.7°C 88% Calm Calm -- 30.34 in1027.4 mb 0.00 in0.0 mm 0.00 in0.0 mm 0.00 in0.0 mm
09:05 AM 27.5°F-2.5°C 24.7°F-4.1°C 89% Calm Calm -- 30.34 in1027.4 mb 0.00 in0.0 mm 0.00 in0.0 mm 0.00 in0.0 mm
09:10 AM 28.1°F-2.2°C 25.0°F-3.9°C 88% Calm Calm -- 30.34 in1027.4 mb 0.00 in0.0 mm 0.00 in0.0 mm 0.00 in0.0 mm
09:15 AM 28.7°F-1.8°C 25.6°F-3.6°C 88% Calm Calm -- 30.34 in1027.4 mb 0.00 in0.0 mm 0.00 in0.0 mm 0.00 in0.0 mm
09:20 AM 29.3°F-1.5°C 25.9°F-3.4°C 87% 1.0 mph E1.6 kmh E -- 30.34 in1027.4 mb 0.00 in0.0 mm 0.00 in0.0 mm 0.00 in0.0 mm
09:25 AM 30.0°F-1.1°C 26.6°F-3.0°C 87% 1.0 mph E1.6 kmh E -- 30.34 in1027.4 mb 0.00 in0.0 mm 0.00 in0.0 mm 0.00 in0.0 mm
09:30 AM 30.5°F-0.8°C 26.5°F-3.1°C 85% Calm Calm 2.0 mph3.2 kmh 30.34 in1027.4 mb 0.00 in0.0 mm 0.00 in0.0 mm 0.00 in0.0 mm
09:35 AM 30.8°F-0.7°C 26.5°F-3.1°C 84% Calm Calm 2.0 mph3.2 kmh 30.34 in1027.4 mb 0.00 in0.0 mm 0.00 in0.0 mm 0.00 in0.0 mm
09:40 AM 31.1°F-0.5°C 26.8°F-2.9°C 84% 2.0 mph E3.2 kmh E -- 30.34 in1027.4 mb 0.00 in0.0 mm 0.00 in0.0 mm 0.00 in0.0 mm
09:45 AM 31.2°F-0.4°C 26.6°F-3.0°C 83% Calm Calm -- 30.34 in1027.4 mb 0.00 in0.0 mm 0.00 in0.0 mm 0.00 in0.0 mm
09:50 AM 31.3°F-0.4°C 26.5°F-3.1°C 82% 1.0 mph SE1.6 kmh SE -- 30.34 in1027.4 mb 0.00 in0.0 mm 0.00 in0.0 mm 0.00 in0.0 mm
09:55 AM 31.3°F-0.4°C 26.5°F-3.1°C 82% Calm Calm -- 30.34 in1027.4 mb 0.00 in0.0 mm 0.00 in0.0 mm 0.00 in0.0 mm
10:00 AM 31.5°F-0.3°C 26.4°F-3.1°C 81% Calm Calm -- 30.35 in1027.8 mb 0.00 in0.0 mm 0.00 in0.0 mm 0.00 in0.0 mm
10:05 AM 31.6°F-0.2°C 26.2°F-3.2°C 80% Calm Calm -- 30.34 in1027.4 mb 0.00 in0.0 mm 0.00 in0.0 mm 0.00 in0.0 mm
10:10 AM 32.0°F0.0°C 26.8°F-2.9°C 81% Calm Calm -- 30.34 in1027.4 mb 0.00 in0.0 mm 0.00 in0.0 mm 0.00 in0.0 mm
10:15 AM 32.2°F0.1°C 26.7°F-2.9°C 80% Calm Calm -- 30.34 in1027.4 mb 0.00 in0.0 mm 0.00 in0.0 mm 0.00 in0.0 mm
10:20 AM 32.4°F0.2°C 26.6°F-3.0°C 79% 1.0 mph SE1.6 kmh SE 2.0 mph3.2 kmh 30.34 in1027.4 mb 0.00 in0.0 mm 0.00 in0.0 mm 0.00 in0.0 mm
10:25 AM 32.4°F0.2°C 26.3°F-3.2°C 78% 1.0 mph SE1.6 kmh SE 2.0 mph3.2 kmh 30.35 in1027.8 mb 0.00 in0.0 mm 0.00 in0.0 mm 0.00 in0.0 mm
10:30 AM 32.4°F0.2°C 26.0°F-3.3°C 77% Calm Calm -- 30.35 in1027.8 mb 0.00 in0.0 mm 0.00 in0.0 mm 0.00 in0.0 mm
10:35 AM 32.5°F0.3°C 26.1°F-3.3°C 77% Calm Calm -- 30.35 in1027.8 mb 0.00 in0.0 mm 0.00 in0.0 mm 0.00 in0.0 mm
10:40 AM 32.9°F0.5°C 26.5°F-3.1°C 77% Calm Calm -- 30.35 in1027.8 mb 0.00 in0.0 mm 0.00 in0.0 mm 0.00 in0.0 mm
10:45 AM 33.1°F0.6°C 26.4°F-3.1°C 76% Calm Calm -- 30.35 in1027.8 mb 0.00 in0.0 mm 0.00 in0.0 mm 0.00 in0.0 mm
10:50 AM 33.5°F0.8°C 26.8°F-2.9°C 76% Calm Calm -- 30.35 in1027.8 mb 0.00 in0.0 mm 0.00 in0.0 mm 0.00 in0.0 mm
10:55 AM 33.8°F1.0°C 27.1°F-2.7°C 76% Calm Calm -- 30.34 in1027.4 mb 0.00 in0.0 mm 0.00 in0.0 mm 0.00 in0.0 mm
11:00 AM 34.4°F1.3°C 27.0°F-2.8°C 74% 2.0 mph S3.2 kmh S -- 30.34 in1027.4 mb 0.00 in0.0 mm 0.00 in0.0 mm 0.00 in0.0 mm
11:05 AM 34.5°F1.4°C 26.4°F-3.1°C 72% Calm Calm -- 30.34 in1027.4 mb 0.00 in0.0 mm 0.00 in0.0 mm 0.00 in0.0 mm
11:10 AM 34.4°F1.3°C 26.3°F-3.2°C 72% Calm Calm 3.0 mph4.8 kmh 30.34 in1027.4 mb 0.00 in0.0 mm 0.00 in0.0 mm 0.00 in0.0 mm
11:15 AM 34.7°F1.5°C 26.6°F-3.0°C 72% Calm Calm 3.0 mph4.8 kmh 30.34 in1027.4 mb 0.00 in0.0 mm 0.00 in0.0 mm 0.00 in0.0 mm
11:20 AM 35.2°F1.8°C 26.4°F-3.1°C 70% Calm Calm -- 30.34 in1027.4 mb 0.00 in0.0 mm 0.00 in0.0 mm 0.00 in0.0 mm
11:25 AM 35.6°F2.0°C 26.1°F-3.3°C 68% 1.0 mph S1.6 kmh S -- 30.34 in1027.4 mb 0.00 in0.0 mm 0.00 in0.0 mm 0.00 in0.0 mm
11:30 AM 35.6°F2.0°C 26.1°F-3.3°C 68% Calm Calm -- 30.34 in1027.4 mb 0.00 in0.0 mm 0.00 in0.0 mm 0.00 in0.0 mm
11:35 AM 36.1°F2.3°C 26.2°F-3.2°C 67% Calm Calm -- 30.34 in1027.4 mb 0.00 in0.0 mm 0.00 in0.0 mm 0.00 in0.0 mm
11:40 AM 36.0°F2.2°C 26.1°F-3.3°C 67% Calm Calm -- 30.34 in1027.4 mb 0.00 in0.0 mm 0.00 in0.0 mm 0.00 in0.0 mm
11:45 AM 36.2°F2.3°C 26.0°F-3.3°C 66% Calm Calm -- 30.34 in1027.4 mb 0.00 in0.0 mm 0.00 in0.0 mm 0.00 in0.0 mm
11:50 AM 36.5°F2.5°C 25.9°F-3.4°C 65% 1.0 mph W1.6 kmh W -- 30.34 in1027.4 mb 0.00 in0.0 mm 0.00 in0.0 mm 0.00 in0.0 mm
11:55 AM 36.0°F2.2°C 24.6°F-4.1°C 63% Calm Calm -- 30.34 in1027.4 mb 0.00 in0.0 mm 0.00 in0.0 mm 0.00 in0.0 mm
12:00 PM 35.9°F2.2°C 24.9°F-3.9°C 64% 2.0 mph W3.2 kmh W 1.0 mph1.6 kmh 30.34 in1027.4 mb 0.00 in0.0 mm 0.00 in0.0 mm 0.00 in0.0 mm
12:05 PM 36.1°F2.3°C 25.1°F-3.8°C 64% Calm Calm 1.0 mph1.6 kmh 30.34 in1027.4 mb 0.00 in0.0 mm 0.00 in0.0 mm 0.00 in0.0 mm
12:10 PM 36.6°F2.6°C 26.0°F-3.3°C 65% Calm Calm -- 30.34 in1027.4 mb 0.00 in0.0 mm 0.00 in0.0 mm 0.00 in0.0 mm
12:15 PM 37.0°F2.8°C 26.0°F-3.3°C 64% Calm Calm -- 30.34 in1027.4 mb 0.00 in0.0 mm 0.00 in0.0 mm 0.00 in0.0 mm
12:20 PM 37.1°F2.8°C 25.3°F-3.7°C 62% 1.0 mph S1.6 kmh S -- 30.34 in1027.4 mb 0.00 in0.0 mm 0.00 in0.0 mm 0.00 in0.0 mm
12:25 PM 37.3°F2.9°C 25.9°F-3.4°C 63% 1.0 mph S1.6 kmh S -- 30.34 in1027.4 mb 0.00 in0.0 mm 0.00 in0.0 mm 0.00 in0.0 mm
12:30 PM 37.8°F3.2°C 26.0°F-3.3°C 62% 1.0 mph S1.6 kmh S -- 30.34 in1027.4 mb 0.00 in0.0 mm 0.00 in0.0 mm 0.00 in0.0 mm
12:35 PM 38.2°F3.4°C 26.0°F-3.3°C 61% Calm Calm -- 30.34 in1027.4 mb 0.00 in0.0 mm 0.00 in0.0 mm 0.00 in0.0 mm
12:40 PM 38.4°F3.6°C 26.5°F-3.1°C 62% Calm Calm -- 30.34 in1027.4 mb 0.00 in0.0 mm 0.00 in0.0 mm 0.00 in0.0 mm
12:45 PM 38.6°F3.7°C 26.3°F-3.2°C 61% 2.0 mph SSW3.2 kmh SSW -- 30.34 in1027.4 mb 0.00 in0.0 mm 0.00 in0.0 mm 0.00 in0.0 mm
12:50 PM 38.1°F3.4°C 25.9°F-3.4°C 61% Calm Calm 3.0 mph4.8 kmh 30.34 in1027.4 mb 0.00 in0.0 mm 0.00 in0.0 mm 0.00 in0.0 mm
12:55 PM 37.7°F3.2°C 25.1°F-3.8°C 60% Calm Calm 3.0 mph4.8 kmh 30.33 in1027.1 mb 0.00 in0.0 mm 0.00 in0.0 mm 0.00 in0.0 mm
01:00 PM 37.4°F3.0°C 24.0°F-4.4°C 58% 3.0 mph WNW4.8 kmh WNW -- 30.33 in1027.1 mb 0.00 in0.0 mm 0.00 in0.0 mm 0.00 in0.0 mm
01:05 PM 37.1°F2.8°C 23.3°F-4.8°C 57% 1.0 mph WNW1.6 kmh WNW -- 30.33 in1027.1 mb 0.00 in0.0 mm 0.00 in0.0 mm 0.00 in0.0 mm
01:10 PM 37.3°F2.9°C 22.6°F-5.2°C 55% 3.0 mph NNW4.8 kmh NNW -- 30.33 in1027.1 mb 0.00 in0.0 mm 0.00 in0.0 mm 0.00 in0.0 mm
01:15 PM 37.2°F2.9°C 21.7°F-5.7°C 53% 4.0 mph WSW6.4 kmh WSW -- 30.33 in1027.1 mb 0.00 in0.0 mm 0.00 in0.0 mm 0.00 in0.0 mm
01:20 PM 37.4°F3.0°C 21.8°F-5.7°C 53% 1.0 mph W1.6 kmh W -- 30.33 in1027.1 mb 0.00 in0.0 mm 0.00 in0.0 mm 0.00 in0.0 mm
01:25 PM 37.5°F3.1°C 22.4°F-5.3°C 54% 1.0 mph W1.6 kmh W -- 30.33 in1027.1 mb 0.00 in0.0 mm 0.00 in0.0 mm 0.00 in0.0 mm
01:30 PM 37.5°F3.1°C 22.8°F-5.1°C 55% Calm Calm -- 30.32 in1026.8 mb 0.00 in0.0 mm 0.00 in0.0 mm 0.00 in0.0 mm
01:35 PM 37.5°F3.1°C 22.4°F-5.3°C 54% Calm Calm -- 30.32 in1026.8 mb 0.00 in0.0 mm 0.00 in0.0 mm 0.00 in0.0 mm
01:40 PM 37.9°F3.3°C 23.6°F-4.7°C 56% 1.0 mph NW1.6 kmh NW 3.0 mph4.8 kmh 30.32 in1026.8 mb 0.00 in0.0 mm 0.00 in0.0 mm 0.00 in0.0 mm
01:45 PM 38.2°F3.4°C 24.3°F-4.3°C 57% 1.0 mph WNW1.6 kmh WNW 3.0 mph4.8 kmh 30.32 in1026.8 mb 0.00 in0.0 mm 0.00 in0.0 mm 0.00 in0.0 mm
01:50 PM 38.3°F3.5°C 24.4°F-4.2°C 57% 5.0 mph W8.0 kmh W -- 30.32 in1026.8 mb 0.00 in0.0 mm 0.00 in0.0 mm 0.00 in0.0 mm
01:55 PM 38.0°F3.3°C 23.3°F-4.8°C 55% Calm Calm -- 30.32 in1026.8 mb 0.00 in0.0 mm 0.00 in0.0 mm 0.00 in0.0 mm
02:00 PM 38.1°F3.4°C 24.2°F-4.3°C 57% Calm Calm -- 30.32 in1026.8 mb 0.00 in0.0 mm 0.00 in0.0 mm 0.00 in0.0 mm
02:05 PM 38.1°F3.4°C 23.4°F-4.8°C 55% Calm Calm -- 30.31 in1026.4 mb 0.00 in0.0 mm 0.00 in0.0 mm 0.00 in0.0 mm
02:10 PM 38.2°F3.4°C 23.5°F-4.7°C 55% Calm Calm -- 30.31 in1026.4 mb 0.00 in0.0 mm 0.00 in0.0 mm 0.00 in0.0 mm
02:15 PM 38.4°F3.6°C 23.7°F-4.6°C 55% Calm Calm -- 30.31 in1026.4 mb 0.00 in0.0 mm 0.00 in0.0 mm 0.00 in0.0 mm
02:20 PM 38.7°F3.7°C 24.8°F-4.0°C 57% Calm Calm -- 30.31 in1026.4 mb 0.00 in0.0 mm 0.00 in0.0 mm 0.00 in0.0 mm
02:25 PM 39.0°F3.9°C 23.8°F-4.6°C 54% 1.0 mph WSW1.6 kmh WSW -- 30.31 in1026.4 mb 0.00 in0.0 mm 0.00 in0.0 mm 0.00 in0.0 mm
02:30 PM 39.1°F3.9°C 23.9°F-4.5°C 54% Calm Calm 5.0 mph8.0 kmh 30.30 in1026.1 mb 0.00 in0.0 mm 0.00 in0.0 mm 0.00 in0.0 mm
02:35 PM 39.3°F4.1°C 24.9°F-3.9°C 56% 4.0 mph NW6.4 kmh NW 5.0 mph8.0 kmh 30.30 in1026.1 mb 0.00 in0.0 mm 0.00 in0.0 mm 0.00 in0.0 mm
02:40 PM 39.2°F4.0°C 22.6°F-5.2°C 51% 1.0 mph WNW1.6 kmh WNW -- 30.30 in1026.1 mb 0.00 in0.0 mm 0.00 in0.0 mm 0.00 in0.0 mm
02:45 PM 38.9°F3.8°C 21.9°F-5.6°C 50% Calm Calm -- 30.30 in1026.1 mb 0.00 in0.0 mm 0.00 in0.0 mm 0.00 in0.0 mm
02:50 PM 39.0°F3.9°C 22.0°F-5.6°C 50% 3.0 mph NW4.8 kmh NW -- 30.30 in1026.1 mb 0.00 in0.0 mm 0.00 in0.0 mm 0.00 in0.0 mm
02:55 PM 39.3°F4.1°C 22.2°F-5.4°C 50% 5.0 mph WNW8.0 kmh WNW -- 30.30 in1026.1 mb 0.00 in0.0 mm 0.00 in0.0 mm 0.00 in0.0 mm
03:00 PM 39.3°F4.1°C 21.8°F-5.7°C 49% 3.0 mph N4.8 kmh N -- 30.30 in1026.1 mb 0.00 in0.0 mm 0.00 in0.0 mm 0.00 in0.0 mm
03:05 PM 39.5°F4.2°C 21.5°F-5.8°C 48% Calm Calm -- 30.30 in1026.1 mb 0.00 in0.0 mm 0.00 in0.0 mm 0.00 in0.0 mm
03:10 PM 40.0°F4.4°C 22.9°F-5.1°C 50% 1.0 mph NW1.6 kmh NW -- 30.30 in1026.1 mb 0.00 in0.0 mm 0.00 in0.0 mm 0.00 in0.0 mm
03:15 PM 40.0°F4.4°C 22.9°F-5.1°C 50% 5.0 mph NW8.0 kmh NW -- 30.30 in1026.1 mb 0.00 in0.0 mm 0.00 in0.0 mm 0.00 in0.0 mm
03:20 PM 39.9°F4.4°C 22.8°F-5.1°C 50% 2.0 mph WNW3.2 kmh WNW 7.0 mph11.3 kmh 30.30 in1026.1 mb 0.00 in0.0 mm 0.00 in0.0 mm 0.00 in0.0 mm
03:25 PM 39.9°F4.4°C 22.3°F-5.4°C 49% 5.0 mph NW8.0 kmh NW 7.0 mph11.3 kmh 30.29 in1025.7 mb 0.00 in0.0 mm 0.00 in0.0 mm 0.00 in0.0 mm
03:30 PM 39.7°F4.3°C 23.1°F-4.9°C 51% 2.0 mph W3.2 kmh W -- 30.30 in1026.1 mb 0.00 in0.0 mm 0.00 in0.0 mm 0.00 in0.0 mm
03:35 PM 39.7°F4.3°C 23.1°F-4.9°C 51% 3.0 mph NW4.8 kmh NW -- 30.29 in1025.7 mb 0.00 in0.0 mm 0.00 in0.0 mm 0.00 in0.0 mm
03:40 PM 39.8°F4.3°C 23.2°F-4.9°C 51% 7.0 mph W11.3 kmh W -- 30.29 in1025.7 mb 0.00 in0.0 mm 0.00 in0.0 mm 0.00 in0.0 mm
03:45 PM 39.7°F4.3°C 23.1°F-4.9°C 51% Calm Calm -- 30.29 in1025.7 mb 0.00 in0.0 mm 0.00 in0.0 mm 0.00 in0.0 mm
03:50 PM 39.7°F4.3°C 23.5°F-4.7°C 52% Calm Calm -- 30.29 in1025.7 mb 0.00 in0.0 mm 0.00 in0.0 mm 0.00 in0.0 mm
03:55 PM 39.8°F4.3°C 23.6°F-4.7°C 52% 1.0 mph WSW1.6 kmh WSW -- 30.28 in1025.4 mb 0.00 in0.0 mm 0.00 in0.0 mm 0.00 in0.0 mm
04:00 PM 39.9°F4.4°C 23.7°F-4.6°C 52% 1.0 mph WNW1.6 kmh WNW -- 30.28 in1025.4 mb 0.00 in0.0 mm 0.00 in0.0 mm 0.00 in0.0 mm
04:05 PM 40.0°F4.4°C 23.8°F-4.6°C 52% 1.0 mph W1.6 kmh W -- 30.28 in1025.4 mb 0.00 in0.0 mm 0.00 in0.0 mm 0.00 in0.0 mm
04:10 PM 40.0°F4.4°C 23.8°F-4.6°C 52% 4.0 mph NW6.4 kmh NW 4.0 mph6.4 kmh 30.28 in1025.4 mb 0.00 in0.0 mm 0.00 in0.0 mm 0.00 in0.0 mm
04:15 PM 40.2°F4.6°C 24.0°F-4.4°C 52% Calm Calm 4.0 mph6.4 kmh 30.28 in1025.4 mb 0.00 in0.0 mm 0.00 in0.0 mm 0.00 in0.0 mm
04:20 PM 40.3°F4.6°C 23.6°F-4.7°C 51% Calm Calm -- 30.28 in1025.4 mb 0.00 in0.0 mm 0.00 in0.0 mm 0.00 in0.0 mm
04:25 PM 40.2°F4.6°C 23.1°F-4.9°C 50% 3.0 mph NW4.8 kmh NW -- 30.28 in1025.4 mb 0.00 in0.0 mm 0.00 in0.0 mm 0.00 in0.0 mm
04:30 PM 39.9°F4.4°C 22.8°F-5.1°C 50% 1.0 mph WNW1.6 kmh WNW -- 30.28 in1025.4 mb 0.00 in0.0 mm 0.00 in0.0 mm 0.00 in0.0 mm
04:35 PM 39.9°F4.4°C 23.3°F-4.8°C 51% 2.0 mph WNW3.2 kmh WNW -- 30.28 in1025.4 mb 0.00 in0.0 mm 0.00 in0.0 mm 0.00 in0.0 mm
04:40 PM 39.8°F4.3°C 23.2°F-4.9°C 51% 4.0 mph W6.4 kmh W -- 30.28 in1025.4 mb 0.00 in0.0 mm 0.00 in0.0 mm 0.00 in0.0 mm
04:45 PM 39.8°F4.3°C 22.7°F-5.2°C 50% Calm Calm -- 30.27 in1025.1 mb 0.00 in0.0 mm 0.00 in0.0 mm 0.00 in0.0 mm
04:50 PM 39.9°F4.4°C 23.3°F-4.8°C 51% 1.0 mph W1.6 kmh W -- 30.27 in1025.1 mb 0.00 in0.0 mm 0.00 in0.0 mm 0.00 in0.0 mm
04:55 PM 40.0°F4.4°C 23.3°F-4.8°C 51% 3.0 mph NW4.8 kmh NW -- 30.27 in1025.1 mb 0.00 in0.0 mm 0.00 in0.0 mm 0.00 in0.0 mm
05:00 PM 39.8°F4.3°C 23.2°F-4.9°C 51% Calm Calm 7.0 mph11.3 kmh 30.27 in1025.1 mb 0.00 in0.0 mm 0.00 in0.0 mm 0.00 in0.0 mm
05:05 PM 39.7°F4.3°C 23.5°F-4.7°C 52% 3.0 mph WSW4.8 kmh WSW 7.0 mph11.3 kmh 30.27 in1025.1 mb 0.00 in0.0 mm 0.00 in0.0 mm 0.00 in0.0 mm
05:10 PM 39.6°F4.2°C 23.4°F-4.8°C 52% 1.0 mph W1.6 kmh W -- 30.27 in1025.1 mb 0.00 in0.0 mm 0.00 in0.0 mm 0.00 in0.0 mm
05:15 PM 39.6°F4.2°C 23.9°F-4.5°C 53% Calm Calm -- 30.27 in1025.1 mb 0.00 in0.0 mm 0.00 in0.0 mm 0.00 in0.0 mm
05:20 PM 39.8°F4.3°C 24.1°F-4.4°C 53% 1.0 mph W1.6 kmh W -- 30.27 in1025.1 mb 0.00 in0.0 mm 0.00 in0.0 mm 0.00 in0.0 mm
05:25 PM 40.1°F4.5°C 24.4°F-4.2°C 53% Calm Calm -- 30.27 in1025.1 mb 0.00 in0.0 mm 0.00 in0.0 mm 0.00 in0.0 mm
05:30 PM 40.4°F4.7°C 23.7°F-4.6°C 51% 3.0 mph W4.8 kmh W -- 30.27 in1025.1 mb 0.00 in0.0 mm 0.00 in0.0 mm 0.00 in0.0 mm
05:35 PM 40.4°F4.7°C 24.2°F-4.3°C 52% 5.0 mph WNW8.0 kmh WNW -- 30.28 in1025.4 mb 0.00 in0.0 mm 0.00 in0.0 mm 0.00 in0.0 mm
05:40 PM 40.2°F4.6°C 24.5°F-4.2°C 53% Calm Calm -- 30.28 in1025.4 mb 0.00 in0.0 mm 0.00 in0.0 mm 0.00 in0.0 mm
05:45 PM 40.1°F4.5°C 24.8°F-4.0°C 54% 2.0 mph WNW3.2 kmh WNW -- 30.28 in1025.4 mb 0.00 in0.0 mm 0.00 in0.0 mm 0.00 in0.0 mm
05:50 PM 39.9°F4.4°C 24.6°F-4.1°C 54% 2.0 mph WNW3.2 kmh WNW 6.0 mph9.7 kmh 30.28 in1025.4 mb 0.00 in0.0 mm 0.00 in0.0 mm 0.00 in0.0 mm
05:55 PM 39.9°F4.4°C 25.1°F-3.8°C 55% Calm Calm 6.0 mph9.7 kmh 30.28 in1025.4 mb 0.00 in0.0 mm 0.00 in0.0 mm 0.00 in0.0 mm
06:00 PM 39.8°F4.3°C 25.0°F-3.9°C 55% 1.0 mph WSW1.6 kmh WSW -- 30.28 in1025.4 mb 0.00 in0.0 mm 0.00 in0.0 mm 0.00 in0.0 mm
06:05 PM 39.7°F4.3°C 24.9°F-3.9°C 55% 2.0 mph W3.2 kmh W -- 30.28 in1025.4 mb 0.00 in0.0 mm 0.00 in0.0 mm 0.00 in0.0 mm
06:10 PM 39.8°F4.3°C 25.0°F-3.9°C 55% Calm Calm -- 30.28 in1025.4 mb 0.00 in0.0 mm 0.00 in0.0 mm 0.00 in0.0 mm
06:15 PM 39.9°F4.4°C 25.5°F-3.6°C 56% 1.0 mph WNW1.6 kmh WNW -- 30.28 in1025.4 mb 0.00 in0.0 mm 0.00 in0.0 mm 0.00 in0.0 mm
06:20 PM 39.8°F4.3°C 25.0°F-3.9°C 55% 1.0 mph WNW1.6 kmh WNW -- 30.27 in1025.1 mb 0.00 in0.0 mm 0.00 in0.0 mm 0.00 in0.0 mm
06:25 PM 39.8°F4.3°C 25.0°F-3.9°C 55% 4.0 mph WNW6.4 kmh WNW -- 30.27 in1025.1 mb 0.00 in0.0 mm 0.00 in0.0 mm 0.00 in0.0 mm
06:30 PM 39.6°F4.2°C 25.2°F-3.8°C 56% 2.0 mph WNW3.2 kmh WNW -- 30.27 in1025.1 mb 0.00 in0.0 mm 0.00 in0.0 mm 0.00 in0.0 mm
06:35 PM 39.6°F4.2°C 25.2°F-3.8°C 56% Calm Calm -- 30.27 in1025.1 mb 0.00 in0.0 mm 0.00 in0.0 mm 0.00 in0.0 mm
06:40 PM 39.5°F4.2°C 25.1°F-3.8°C 56% Calm Calm 3.0 mph4.8 kmh 30.27 in1025.1 mb 0.00 in0.0 mm 0.00 in0.0 mm 0.00 in0.0 mm
06:45 PM 39.3°F4.1°C 25.4°F-3.7°C 57% Calm Calm 3.0 mph4.8 kmh 30.27 in1025.1 mb 0.00 in0.0 mm 0.00 in0.0 mm 0.00 in0.0 mm
06:50 PM 39.1°F3.9°C 25.6°F-3.6°C 58% Calm Calm -- 30.27 in1025.1 mb 0.00 in0.0 mm 0.00 in0.0 mm 0.00 in0.0 mm
06:55 PM 38.9°F3.8°C 25.4°F-3.7°C 58% Calm Calm -- 30.27 in1025.1 mb 0.00 in0.0 mm 0.00 in0.0 mm 0.00 in0.0 mm
07:00 PM 38.7°F3.7°C 25.6°F-3.6°C 59% Calm Calm -- 30.27 in1025.1 mb 0.00 in0.0 mm 0.00 in0.0 mm 0.00 in0.0 mm
07:05 PM 38.5°F3.6°C 25.8°F-3.4°C 60% 1.0 mph W1.6 kmh W -- 30.27 in1025.1 mb 0.00 in0.0 mm 0.00 in0.0 mm 0.00 in0.0 mm
07:10 PM 38.3°F3.5°C 25.6°F-3.6°C 60% Calm Calm -- 30.27 in1025.1 mb 0.00 in0.0 mm 0.00 in0.0 mm 0.00 in0.0 mm
07:15 PM 38.1°F3.4°C 25.9°F-3.4°C 61% Calm Calm -- 30.27 in1025.1 mb 0.00 in0.0 mm 0.00 in0.0 mm 0.00 in0.0 mm
07:20 PM 37.9°F3.3°C 25.7°F-3.5°C 61% Calm Calm -- 30.27 in1025.1 mb 0.00 in0.0 mm 0.00 in0.0 mm 0.00 in0.0 mm
07:25 PM 37.7°F3.2°C 25.9°F-3.4°C 62% Calm Calm -- 30.27 in1025.1 mb 0.00 in0.0 mm 0.00 in0.0 mm 0.00 in0.0 mm
07:30 PM 37.6°F3.1°C 25.8°F-3.4°C 62% Calm Calm -- 30.27 in1025.1 mb 0.00 in0.0 mm 0.00 in0.0 mm 0.00 in0.0 mm
07:35 PM 37.5°F3.1°C 25.7°F-3.5°C 62% Calm Calm -- 30.27 in1025.1 mb 0.00 in0.0 mm 0.00 in0.0 mm 0.00 in0.0 mm
07:40 PM 37.4°F3.0°C 26.0°F-3.3°C 63% Calm Calm -- 30.27 in1025.1 mb 0.00 in0.0 mm 0.00 in0.0 mm 0.00 in0.0 mm
07:45 PM 37.3°F2.9°C 25.9°F-3.4°C 63% Calm Calm -- 30.27 in1025.1 mb 0.00 in0.0 mm 0.00 in0.0 mm 0.00 in0.0 mm
07:50 PM 37.2°F2.9°C 25.8°F-3.4°C 63% Calm Calm -- 30.27 in1025.1 mb 0.00 in0.0 mm 0.00 in0.0 mm 0.00 in0.0 mm
07:55 PM 37.1°F2.8°C 25.7°F-3.5°C 63% Calm Calm -- 30.27 in1025.1 mb 0.00 in0.0 mm 0.00 in0.0 mm 0.00 in0.0 mm
08:00 PM 37.1°F2.8°C 26.1°F-3.3°C 64% Calm Calm -- 30.27 in1025.1 mb 0.00 in0.0 mm 0.00 in0.0 mm 0.00 in0.0 mm
08:05 PM 36.9°F2.7°C 26.2°F-3.2°C 65% Calm Calm -- 30.27 in1025.1 mb 0.00 in0.0 mm 0.00 in0.0 mm 0.00 in0.0 mm
08:10 PM 36.8°F2.7°C 26.2°F-3.2°C 65% Calm Calm -- 30.27 in1025.1 mb 0.00 in0.0 mm 0.00 in0.0 mm 0.00 in0.0 mm
08:15 PM 36.7°F2.6°C 26.4°F-3.1°C 66% Calm Calm -- 30.27 in1025.1 mb 0.00 in0.0 mm 0.00 in0.0 mm 0.00 in0.0 mm
08:20 PM 36.6°F2.6°C 26.3°F-3.2°C 66% Calm Calm -- 30.26 in1024.7 mb 0.00 in0.0 mm 0.00 in0.0 mm 0.00 in0.0 mm
08:25 PM 36.5°F2.5°C 26.6°F-3.0°C 67% Calm Calm -- 30.26 in1024.7 mb 0.00 in0.0 mm 0.00 in0.0 mm 0.00 in0.0 mm
08:30 PM 36.4°F2.4°C 26.5°F-3.1°C 67% Calm Calm -- 30.26 in1024.7 mb 0.00 in0.0 mm 0.00 in0.0 mm 0.00 in0.0 mm
08:35 PM 36.4°F2.4°C 26.5°F-3.1°C 67% Calm Calm -- 30.26 in1024.7 mb 0.00 in0.0 mm 0.00 in0.0 mm 0.00 in0.0 mm
08:40 PM 36.3°F2.4°C 26.8°F-2.9°C 68% Calm Calm -- 30.26 in1024.7 mb 0.00 in0.0 mm 0.00 in0.0 mm 0.00 in0.0 mm
08:45 PM 36.2°F2.3°C 26.7°F-2.9°C 68% Calm Calm -- 30.26 in1024.7 mb 0.00 in0.0 mm 0.00 in0.0 mm 0.00 in0.0 mm
08:50 PM 36.1°F2.3°C 26.9°F-2.8°C 69% Calm Calm -- 30.26 in1024.7 mb 0.00 in0.0 mm 0.00 in0.0 mm 0.00 in0.0 mm
08:55 PM 36.0°F2.2°C 26.8°F-2.9°C 69% Calm Calm -- 30.26 in1024.7 mb 0.00 in0.0 mm 0.00 in0.0 mm 0.00 in0.0 mm
09:00 PM 36.0°F2.2°C 26.5°F-3.1°C 68% 2.0 mph W3.2 kmh W -- 30.26 in1024.7 mb 0.00 in0.0 mm 0.00 in0.0 mm 0.00 in0.0 mm
09:05 PM 36.2°F2.3°C 27.0°F-2.8°C 69% Calm Calm -- 30.26 in1024.7 mb 0.00 in0.0 mm 0.00 in0.0 mm 0.00 in0.0 mm
09:10 PM 36.5°F2.5°C 27.3°F-2.6°C 69% Calm Calm 5.0 mph8.0 kmh 30.26 in1024.7 mb 0.00 in0.0 mm 0.00 in0.0 mm 0.00 in0.0 mm
09:15 PM 36.7°F2.6°C 27.5°F-2.5°C 69% Calm Calm 5.0 mph8.0 kmh 30.26 in1024.7 mb 0.00 in0.0 mm 0.00 in0.0 mm 0.00 in0.0 mm
09:20 PM 36.8°F2.7°C 27.6°F-2.4°C 69% 4.0 mph W6.4 kmh W -- 30.26 in1024.7 mb 0.00 in0.0 mm 0.00 in0.0 mm 0.00 in0.0 mm
09:25 PM 36.8°F2.7°C 27.6°F-2.4°C 69% Calm Calm -- 30.26 in1024.7 mb 0.00 in0.0 mm 0.00 in0.0 mm 0.00 in0.0 mm
09:30 PM 36.7°F2.6°C 27.5°F-2.5°C 69% 1.0 mph W1.6 kmh W -- 30.26 in1024.7 mb 0.00 in0.0 mm 0.00 in0.0 mm 0.00 in0.0 mm
09:35 PM 36.6°F2.6°C 27.8°F-2.3°C 70% Calm Calm -- 30.26 in1024.7 mb 0.00 in0.0 mm 0.00 in0.0 mm 0.00 in0.0 mm
09:40 PM 36.6°F2.6°C 27.8°F-2.3°C 70% 3.0 mph WNW4.8 kmh WNW -- 30.25 in1024.4 mb 0.00 in0.0 mm 0.00 in0.0 mm 0.00 in0.0 mm
09:45 PM 36.4°F2.4°C 27.9°F-2.3°C 71% Calm Calm -- 30.25 in1024.4 mb 0.00 in0.0 mm 0.00 in0.0 mm 0.00 in0.0 mm
09:50 PM 36.2°F2.3°C 27.7°F-2.4°C 71% 1.0 mph WSW1.6 kmh WSW -- 30.25 in1024.4 mb 0.00 in0.0 mm 0.00 in0.0 mm 0.00 in0.0 mm
09:55 PM 36.0°F2.2°C 27.9°F-2.3°C 72% Calm Calm -- 30.25 in1024.4 mb 0.00 in0.0 mm 0.00 in0.0 mm 0.00 in0.0 mm
10:00 PM 35.9°F2.2°C 28.1°F-2.2°C 73% Calm Calm 6.0 mph9.7 kmh 30.25 in1024.4 mb 0.00 in0.0 mm 0.00 in0.0 mm 0.00 in0.0 mm
10:05 PM 35.7°F2.1°C 27.9°F-2.3°C 73% Calm Calm 6.0 mph9.7 kmh 30.25 in1024.4 mb 0.00 in0.0 mm 0.00 in0.0 mm 0.00 in0.0 mm
10:10 PM 35.7°F2.1°C 27.9°F-2.3°C 73% Calm Calm -- 30.25 in1024.4 mb 0.00 in0.0 mm 0.00 in0.0 mm 0.00 in0.0 mm
10:15 PM 35.5°F1.9°C 27.7°F-2.4°C 73% Calm Calm -- 30.25 in1024.4 mb 0.00 in0.0 mm 0.00 in0.0 mm 0.00 in0.0 mm
10:20 PM 35.3°F1.8°C 27.9°F-2.3°C 74% Calm Calm -- 30.25 in1024.4 mb 0.00 in0.0 mm 0.00 in0.0 mm 0.00 in0.0 mm
10:25 PM 35.0°F1.7°C 27.6°F-2.4°C 74% Calm Calm -- 30.25 in1024.4 mb 0.00 in0.0 mm 0.00 in0.0 mm 0.00 in0.0 mm
10:30 PM 34.8°F1.6°C 27.7°F-2.4°C 75% Calm Calm -- 30.25 in1024.4 mb 0.00 in0.0 mm 0.00 in0.0 mm 0.00 in0.0 mm
10:35 PM 34.6°F1.4°C 27.5°F-2.5°C 75% Calm Calm -- 30.25 in1024.4 mb 0.00 in0.0 mm 0.00 in0.0 mm 0.00 in0.0 mm
10:40 PM 34.4°F1.3°C 27.6°F-2.4°C 76% Calm Calm -- 30.25 in1024.4 mb 0.00 in0.0 mm 0.00 in0.0 mm 0.00 in0.0 mm
10:45 PM 34.3°F1.3°C 27.5°F-2.5°C 76% Calm Calm -- 30.25 in1024.4 mb 0.00 in0.0 mm 0.00 in0.0 mm 0.00 in0.0 mm
10:50 PM 34.2°F1.2°C 27.4°F-2.6°C 76% Calm Calm 2.0 mph3.2 kmh 30.25 in1024.4 mb 0.00 in0.0 mm 0.00 in0.0 mm 0.00 in0.0 mm
10:55 PM 34.2°F1.2°C 27.8°F-2.3°C 77% Calm Calm 2.0 mph3.2 kmh 30.25 in1024.4 mb 0.00 in0.0 mm 0.00 in0.0 mm 0.00 in0.0 mm
11:00 PM 34.3°F1.3°C 27.9°F-2.3°C 77% Calm Calm -- 30.25 in1024.4 mb 0.00 in0.0 mm 0.00 in0.0 mm 0.00 in0.0 mm
11:05 PM 34.4°F1.3°C 27.9°F-2.3°C 77% Calm Calm -- 30.25 in1024.4 mb 0.00 in0.0 mm 0.00 in0.0 mm 0.00 in0.0 mm
11:10 PM 34.5°F1.4°C 28.0°F-2.2°C 77% Calm Calm -- 30.25 in1024.4 mb 0.00 in0.0 mm 0.00 in0.0 mm 0.00 in0.0 mm
11:15 PM 34.7°F1.5°C 28.2°F-2.1°C 77% 1.0 mph NW1.6 kmh NW -- 30.25 in1024.4 mb 0.00 in0.0 mm 0.00 in0.0 mm 0.00 in0.0 mm
11:20 PM 34.9°F1.6°C 28.4°F-2.0°C 77% 2.0 mph WNW3.2 kmh WNW -- 30.25 in1024.4 mb 0.00 in0.0 mm 0.00 in0.0 mm 0.00 in0.0 mm
11:25 PM 35.2°F1.8°C 28.4°F-2.0°C 76% Calm Calm -- 30.25 in1024.4 mb 0.00 in0.0 mm 0.00 in0.0 mm 0.00 in0.0 mm
11:30 PM 35.2°F1.8°C 28.4°F-2.0°C 76% Calm Calm -- 30.24 in1024.0 mb 0.00 in0.0 mm 0.00 in0.0 mm 0.00 in0.0 mm
11:35 PM 35.2°F1.8°C 28.4°F-2.0°C 76% 1.0 mph WNW1.6 kmh WNW -- 30.25 in1024.4 mb 0.00 in0.0 mm 0.00 in0.0 mm 0.00 in0.0 mm
11:40 PM 35.2°F1.8°C 28.4°F-2.0°C 76% Calm Calm 5.0 mph8.0 kmh 30.24 in1024.0 mb 0.00 in0.0 mm 0.00 in0.0 mm 0.00 in0.0 mm
11:45 PM 35.1°F1.7°C 28.3°F-2.1°C 76% Calm Calm 5.0 mph8.0 kmh 30.24 in1024.0 mb 0.00 in0.0 mm 0.00 in0.0 mm 0.00 in0.0 mm
11:50 PM 35.0°F1.7°C 28.2°F-2.1°C 76% Calm Calm -- 30.24 in1024.0 mb 0.00 in0.0 mm 0.00 in0.0 mm 0.00 in0.0 mm
11:55 PM 34.8°F1.6°C 28.3°F-2.1°C 77% Calm Calm -- 30.24 in1024.0 mb 0.00 in0.0 mm 0.00 in0.0 mm 0.00 in0.0 mm